Weather at Warner's Airport

Public forecast

Using degrees Fahrenheit for public forecast. Weather courtesy of forecast.io.

Closest aviation weather report (METAR) to Warner's Airport

Closest report is Aurora State Airport, 12.8 nm (23.7 km) WSW. Retrieved 2021/06/19 19:53 UTC (53 minutes ago):

KUAO 191953Z VRB04KT 10SM CLR 22/11 A3009 RMK AO2 SLP187 T02220106

Closest aviation forecast (TAF) to Warner's Airport

Closest forecast is Aurora State Airport, 12.8 nm (23.7 km) WSW. Retrieved 2021/06/19 18:38 UTC (2 hours ago):

TAF KUAO 191738Z 1918/2018 VRB04KT P6SM FEW250 FM192100 35007KT P6SM SKC FM200900 VRB04KT P6SM SKC